sensor_id;sensor_type;location;lat;lon;timestamp;P1;durP1;ratioP1;P2;durP2;ratioP2
69325;SDS011;56471;53.508;49.252;2023-02-28T00:00:26;6.30;;;3.95;;
69325;SDS011;56471;53.508;49.252;2023-02-28T00:02:53;5.70;;;3.80;;
69325;SDS011;56471;53.508;49.252;2023-02-28T00:05:19;4.43;;;3.33;;
69325;SDS011;56471;53.508;49.252;2023-02-28T00:07:47;6.47;;;3.67;;
69325;SDS011;56471;53.508;49.252;2023-02-28T00:10:15;5.97;;;3.72;;
69325;SDS011;56471;53.508;49.252;2023-02-28T00:12:49;5.43;;;3.97;;
69325;SDS011;56471;53.508;49.252;2023-02-28T00:15:16;5.13;;;3.70;;
69325;SDS011;56471;53.508;49.252;2023-02-28T00:17:42;4.53;;;3.42;;
69325;SDS011;56471;53.508;49.252;2023-02-28T00:20:08;5.20;;;3.58;;
69325;SDS011;56471;53.508;49.252;2023-02-28T00:22:42;4.65;;;3.33;;
69325;SDS011;56471;53.508;49.252;2023-02-28T00:25:11;5.18;;;3.70;;
69325;SDS011;56471;53.508;49.252;2023-02-28T00:27:38;4.60;;;3.20;;
69325;SDS011;56471;53.508;49.252;2023-02-28T00:30:05;4.00;;;3.22;;
69325;SDS011;56471;53.508;49.252;2023-02-28T00:32:32;4.15;;;3.38;;
69325;SDS011;56471;53.508;49.252;2023-02-28T00:34:59;4.97;;;3.22;;
69325;SDS011;56471;53.508;49.252;2023-02-28T00:37:25;5.05;;;3.60;;
69325;SDS011;56471;53.508;49.252;2023-02-28T00:39:51;4.40;;;3.40;;
69325;SDS011;56471;53.508;49.252;2023-02-28T00:42:17;4.32;;;3.20;;
69325;SDS011;56471;53.508;49.252;2023-02-28T00:44:42;5.13;;;3.50;;
69325;SDS011;56471;53.508;49.252;2023-02-28T00:47:08;4.85;;;3.50;;
69325;SDS011;56471;53.508;49.252;2023-02-28T00:49:34;4.55;;;3.58;;
69325;SDS011;56471;53.508;49.252;2023-02-28T00:52:00;4.93;;;3.40;;
69325;SDS011;56471;53.508;49.252;2023-02-28T00:54:25;4.40;;;3.15;;
69325;SDS011;56471;53.508;49.252;2023-02-28T00:56:51;4.82;;;3.38;;
69325;SDS011;56471;53.508;49.252;2023-02-28T00:59:17;4.38;;;3.50;;
69325;SDS011;56471;53.508;49.252;2023-02-28T01:01:44;4.03;;;3.10;;
69325;SDS011;56471;53.508;49.252;2023-02-28T01:04:10;4.28;;;2.92;;
69325;SDS011;56471;53.508;49.252;2023-02-28T01:06:36;3.88;;;2.92;;
69325;SDS011;56471;53.508;49.252;2023-02-28T01:09:03;4.70;;;3.28;;
69325;SDS011;56471;53.508;49.252;2023-02-28T01:11:29;4.38;;;3.20;;
69325;SDS011;56471;53.508;49.252;2023-02-28T01:13:55;3.58;;;2.85;;
69325;SDS011;56471;53.508;49.252;2023-02-28T01:16:21;4.25;;;3.15;;
69325;SDS011;56471;53.508;49.252;2023-02-28T01:18:47;4.07;;;3.10;;
69325;SDS011;56471;53.508;49.252;2023-02-28T01:21:14;3.63;;;2.92;;
69325;SDS011;56471;53.508;49.252;2023-02-28T01:23:41;4.05;;;2.85;;
69325;SDS011;56471;53.508;49.252;2023-02-28T01:26:08;4.15;;;2.80;;
69325;SDS011;56471;53.508;49.252;2023-02-28T01:28:38;3.47;;;3.00;;
69325;SDS011;56471;53.508;49.252;2023-02-28T01:31:03;4.15;;;3.00;;
69325;SDS011;56471;53.508;49.252;2023-02-28T01:33:30;4.65;;;2.92;;
69325;SDS011;56471;53.508;49.252;2023-02-28T01:36:03;3.65;;;2.80;;
69325;SDS011;56471;53.508;49.252;2023-02-28T01:38:34;3.75;;;3.00;;
69325;SDS011;56471;53.508;49.252;2023-02-28T01:41:00;4.13;;;2.97;;
69325;SDS011;56471;53.508;49.252;2023-02-28T01:43:26;3.75;;;3.03;;
69325;SDS011;56471;53.508;49.252;2023-02-28T01:45:54;3.42;;;2.80;;
69325;SDS011;56471;53.508;49.252;2023-02-28T01:48:23;3.83;;;2.80;;
69325;SDS011;56471;53.508;49.252;2023-02-28T01:50:52;3.28;;;2.65;;
69325;SDS011;56471;53.508;49.252;2023-02-28T01:53:22;3.75;;;2.83;;
69325;SDS011;56471;53.508;49.252;2023-02-28T01:55:55;3.85;;;2.90;;
69325;SDS011;56471;53.508;49.252;2023-02-28T01:58:21;3.25;;;2.83;;
69325;SDS011;56471;53.508;49.252;2023-02-28T02:00:48;4.50;;;2.90;;
69325;SDS011;56471;53.508;49.252;2023-02-28T02:03:14;3.60;;;2.88;;
69325;SDS011;56471;53.508;49.252;2023-02-28T02:05:44;3.20;;;2.70;;
69325;SDS011;56471;53.508;49.252;2023-02-28T02:08:13;3.83;;;2.80;;
69325;SDS011;56471;53.508;49.252;2023-02-28T02:10:54;4.53;;;3.20;;
69325;SDS011;56471;53.508;49.252;2023-02-28T02:34:51;3.33;;;2.80;;
69325;SDS011;56471;53.508;49.252;2023-02-28T02:43:18;4.20;;;3.20;;
69325;SDS011;56471;53.508;49.252;2023-02-28T02:45:59;3.85;;;3.15;;
69325;SDS011;56471;53.508;49.252;2023-02-28T02:48:37;4.05;;;3.03;;
69325;SDS011;56471;53.508;49.252;2023-02-28T02:51:07;4.07;;;2.95;;
69325;SDS011;56471;53.508;49.252;2023-02-28T02:53:39;4.57;;;3.35;;
69325;SDS011;56471;53.508;49.252;2023-02-28T02:56:08;4.70;;;3.13;;
69325;SDS011;56471;53.508;49.252;2023-02-28T02:58:35;3.63;;;2.83;;
69325;SDS011;56471;53.508;49.252;2023-02-28T03:01:07;3.15;;;2.85;;
69325;SDS011;56471;53.508;49.252;2023-02-28T03:03:39;5.97;;;3.25;;
69325;SDS011;56471;53.508;49.252;2023-02-28T03:06:05;4.43;;;3.20;;
69325;SDS011;56471;53.508;49.252;2023-02-28T03:08:35;3.88;;;3.13;;
69325;SDS011;56471;53.508;49.252;2023-02-28T03:11:03;4.15;;;2.88;;
69325;SDS011;56471;53.508;49.252;2023-02-28T03:18:40;3.75;;;3.10;;
69325;SDS011;56471;53.508;49.252;2023-02-28T03:24:10;4.53;;;3.50;;
69325;SDS011;56471;53.508;49.252;2023-02-28T03:26:41;3.78;;;2.97;;
69325;SDS011;56471;53.508;49.252;2023-02-28T03:29:21;3.65;;;3.05;;
69325;SDS011;56471;53.508;49.252;2023-02-28T03:32:06;4.45;;;3.28;;
69325;SDS011;56471;53.508;49.252;2023-02-28T03:34:46;4.60;;;3.50;;
69325;SDS011;56471;53.508;49.252;2023-02-28T03:37:17;3.90;;;3.25;;
69325;SDS011;56471;53.508;49.252;2023-02-28T03:39:57;4.72;;;3.33;;
69325;SDS011;56471;53.508;49.252;2023-02-28T03:42:29;4.50;;;3.10;;
69325;SDS011;56471;53.508;49.252;2023-02-28T03:44:59;3.63;;;3.13;;
69325;SDS011;56471;53.508;49.252;2023-02-28T03:47:32;4.88;;;3.80;;
69325;SDS011;56471;53.508;49.252;2023-02-28T03:50:17;4.63;;;3.30;;
69325;SDS011;56471;53.508;49.252;2023-02-28T03:52:51;4.15;;;3.08;;
69325;SDS011;56471;53.508;49.252;2023-02-28T03:55:26;4.38;;;3.20;;
69325;SDS011;56471;53.508;49.252;2023-02-28T04:00:38;4.78;;;3.38;;
69325;SDS011;56471;53.508;49.252;2023-02-28T04:03:08;4.43;;;3.40;;
69325;SDS011;56471;53.508;49.252;2023-02-28T04:05:33;4.32;;;3.40;;
69325;SDS011;56471;53.508;49.252;2023-02-28T04:08:20;4.30;;;3.45;;
69325;SDS011;56471;53.508;49.252;2023-02-28T04:10:48;5.07;;;3.70;;
69325;SDS011;56471;53.508;49.252;2023-02-28T04:13:22;4.55;;;3.45;;
69325;SDS011;56471;53.508;49.252;2023-02-28T04:15:48;4.38;;;3.47;;
69325;SDS011;56471;53.508;49.252;2023-02-28T04:18:14;5.47;;;3.33;;
69325;SDS011;56471;53.508;49.252;2023-02-28T04:20:39;4.65;;;3.38;;
69325;SDS011;56471;53.508;49.252;2023-02-28T04:23:05;4.30;;;3.40;;
69325;SDS011;56471;53.508;49.252;2023-02-28T04:25:30;4.18;;;3.25;;
69325;SDS011;56471;53.508;49.252;2023-02-28T04:27:56;4.43;;;3.60;;
69325;SDS011;56471;53.508;49.252;2023-02-28T04:30:22;4.47;;;3.25;;
69325;SDS011;56471;53.508;49.252;2023-02-28T04:32:47;3.35;;;3.00;;
69325;SDS011;56471;53.508;49.252;2023-02-28T04:35:13;4.43;;;3.50;;
69325;SDS011;56471;53.508;49.252;2023-02-28T04:37:39;4.03;;;3.25;;
69325;SDS011;56471;53.508;49.252;2023-02-28T04:40:04;4.50;;;3.38;;
69325;SDS011;56471;53.508;49.252;2023-02-28T04:42:31;4.55;;;3.42;;
69325;SDS011;56471;53.508;49.252;2023-02-28T04:45:01;4.15;;;3.50;;
69325;SDS011;56471;53.508;49.252;2023-02-28T04:47:27;5.28;;;3.50;;
69325;SDS011;56471;53.508;49.252;2023-02-28T04:49:53;5.68;;;3.53;;
69325;SDS011;56471;53.508;49.252;2023-02-28T04:52:19;5.57;;;3.33;;
69325;SDS011;56471;53.508;49.252;2023-02-28T04:54:45;5.65;;;3.45;;
69325;SDS011;56471;53.508;49.252;2023-02-28T04:57:10;4.07;;;3.30;;
69325;SDS011;56471;53.508;49.252;2023-02-28T04:59:36;4.55;;;3.45;;
69325;SDS011;56471;53.508;49.252;2023-02-28T05:02:01;4.45;;;3.50;;
69325;SDS011;56471;53.508;49.252;2023-02-28T05:04:34;4.18;;;3.38;;
69325;SDS011;56471;53.508;49.252;2023-02-28T05:07:01;4.40;;;3.38;;
69325;SDS011;56471;53.508;49.252;2023-02-28T05:09:28;3.70;;;3.08;;
69325;SDS011;56471;53.508;49.252;2023-02-28T05:11:54;4.20;;;3.30;;
69325;SDS011;56471;53.508;49.252;2023-02-28T05:14:20;3.97;;;3.10;;
69325;SDS011;56471;53.508;49.252;2023-02-28T05:16:46;3.58;;;2.85;;
69325;SDS011;56471;53.508;49.252;2023-02-28T05:19:12;3.50;;;3.08;;
69325;SDS011;56471;53.508;49.252;2023-02-28T05:21:38;4.15;;;3.03;;
69325;SDS011;56471;53.508;49.252;2023-02-28T05:24:09;3.50;;;3.08;;
69325;SDS011;56471;53.508;49.252;2023-02-28T05:26:37;4.25;;;2.85;;
69325;SDS011;56471;53.508;49.252;2023-02-28T05:29:05;3.55;;;3.05;;
69325;SDS011;56471;53.508;49.252;2023-02-28T05:31:31;4.18;;;3.40;;
69325;SDS011;56471;53.508;49.252;2023-02-28T05:33:57;3.80;;;2.90;;
69325;SDS011;56471;53.508;49.252;2023-02-28T05:36:22;4.60;;;3.30;;
69325;SDS011;56471;53.508;49.252;2023-02-28T05:38:49;3.35;;;2.90;;
69325;SDS011;56471;53.508;49.252;2023-02-28T05:41:15;4.25;;;3.00;;
69325;SDS011;56471;53.508;49.252;2023-02-28T05:43:42;4.05;;;3.15;;
69325;SDS011;56471;53.508;49.252;2023-02-28T05:46:09;4.28;;;3.03;;
69325;SDS011;56471;53.508;49.252;2023-02-28T05:48:36;3.60;;;3.00;;
69325;SDS011;56471;53.508;49.252;2023-02-28T05:51:03;3.97;;;3.00;;
69325;SDS011;56471;53.508;49.252;2023-02-28T05:53:29;4.45;;;3.20;;
69325;SDS011;56471;53.508;49.252;2023-02-28T05:55:56;3.67;;;2.83;;
69325;SDS011;56471;53.508;49.252;2023-02-28T05:58:22;3.95;;;3.00;;
69325;SDS011;56471;53.508;49.252;2023-02-28T06:00:50;4.72;;;3.03;;
69325;SDS011;56471;53.508;49.252;2023-02-28T06:03:16;3.85;;;2.80;;
69325;SDS011;56471;53.508;49.252;2023-02-28T06:05:41;3.20;;;2.78;;
69325;SDS011;56471;53.508;49.252;2023-02-28T06:08:07;3.70;;;3.00;;
69325;SDS011;56471;53.508;49.252;2023-02-28T06:10:33;3.70;;;2.90;;
69325;SDS011;56471;53.508;49.252;2023-02-28T06:13:00;4.18;;;3.20;;
69325;SDS011;56471;53.508;49.252;2023-02-28T06:15:27;4.50;;;2.92;;
69325;SDS011;56471;53.508;49.252;2023-02-28T06:17:53;3.50;;;2.80;;
69325;SDS011;56471;53.508;49.252;2023-02-28T06:20:22;3.28;;;2.80;;
69325;SDS011;56471;53.508;49.252;2023-02-28T06:22:48;3.40;;;2.80;;
69325;SDS011;56471;53.508;49.252;2023-02-28T06:25:16;4.13;;;2.80;;
69325;SDS011;56471;53.508;49.252;2023-02-28T06:27:42;2.95;;;2.63;;
69325;SDS011;56471;53.508;49.252;2023-02-28T06:30:09;3.80;;;2.83;;
69325;SDS011;56471;53.508;49.252;2023-02-28T06:32:35;3.70;;;3.03;;
69325;SDS011;56471;53.508;49.252;2023-02-28T06:35:01;3.22;;;2.70;;
69325;SDS011;56471;53.508;49.252;2023-02-28T06:37:28;3.72;;;2.90;;
69325;SDS011;56471;53.508;49.252;2023-02-28T06:39:55;4.53;;;2.95;;
69325;SDS011;56471;53.508;49.252;2023-02-28T06:42:22;3.75;;;2.80;;
69325;SDS011;56471;53.508;49.252;2023-02-28T06:44:50;3.42;;;2.65;;
69325;SDS011;56471;53.508;49.252;2023-02-28T06:47:16;3.45;;;2.67;;
69325;SDS011;56471;53.508;49.252;2023-02-28T06:49:42;3.05;;;2.60;;
69325;SDS011;56471;53.508;49.252;2023-02-28T06:52:10;3.78;;;2.92;;
69325;SDS011;56471;53.508;49.252;2023-02-28T06:54:36;3.10;;;2.58;;
69325;SDS011;56471;53.508;49.252;2023-02-28T06:57:02;3.90;;;2.85;;
69325;SDS011;56471;53.508;49.252;2023-02-28T06:59:28;3.45;;;2.70;;
69325;SDS011;56471;53.508;49.252;2023-02-28T07:01:53;3.33;;;2.60;;
69325;SDS011;56471;53.508;49.252;2023-02-28T07:04:20;4.13;;;2.90;;
69325;SDS011;56471;53.508;49.252;2023-02-28T07:06:46;3.80;;;3.00;;
69325;SDS011;56471;53.508;49.252;2023-02-28T07:09:12;3.95;;;3.10;;
69325;SDS011;56471;53.508;49.252;2023-02-28T07:11:39;3.08;;;2.78;;
69325;SDS011;56471;53.508;49.252;2023-02-28T07:14:06;3.17;;;2.70;;
69325;SDS011;56471;53.508;49.252;2023-02-28T07:16:32;2.85;;;2.47;;
69325;SDS011;56471;53.508;49.252;2023-02-28T07:18:58;3.28;;;2.63;;
69325;SDS011;56471;53.508;49.252;2023-02-28T07:21:24;3.50;;;2.55;;
69325;SDS011;56471;53.508;49.252;2023-02-28T07:23:50;3.08;;;2.55;;
69325;SDS011;56471;53.508;49.252;2023-02-28T07:26:17;3.30;;;2.75;;
69325;SDS011;56471;53.508;49.252;2023-02-28T07:28:45;3.20;;;2.67;;
69325;SDS011;56471;53.508;49.252;2023-02-28T07:31:11;3.70;;;2.90;;
69325;SDS011;56471;53.508;49.252;2023-02-28T07:33:39;2.97;;;2.50;;
69325;SDS011;56471;53.508;49.252;2023-02-28T07:36:11;3.35;;;2.80;;
69325;SDS011;56471;53.508;49.252;2023-02-28T07:38:40;3.25;;;2.55;;
69325;SDS011;56471;53.508;49.252;2023-02-28T07:41:08;3.42;;;2.60;;
69325;SDS011;56471;53.508;49.252;2023-02-28T07:43:34;2.80;;;2.50;;
69325;SDS011;56471;53.508;49.252;2023-02-28T07:46:08;2.88;;;2.58;;
69325;SDS011;56471;53.508;49.252;2023-02-28T07:48:35;3.17;;;2.63;;
69325;SDS011;56471;53.508;49.252;2023-02-28T07:51:01;3.17;;;2.50;;
69325;SDS011;56471;53.508;49.252;2023-02-28T07:53:27;3.63;;;2.70;;
69325;SDS011;56471;53.508;49.252;2023-02-28T07:55:54;3.28;;;2.38;;
69325;SDS011;56471;53.508;49.252;2023-02-28T07:58:21;3.78;;;2.63;;
69325;SDS011;56471;53.508;49.252;2023-02-28T08:00:47;2.75;;;2.38;;
69325;SDS011;56471;53.508;49.252;2023-02-28T08:03:13;3.67;;;2.83;;
69325;SDS011;56471;53.508;49.252;2023-02-28T08:05:39;3.50;;;2.60;;
69325;SDS011;56471;53.508;49.252;2023-02-28T08:08:05;3.10;;;2.55;;
69325;SDS011;56471;53.508;49.252;2023-02-28T08:10:32;3.50;;;2.67;;
69325;SDS011;56471;53.508;49.252;2023-02-28T08:12:58;3.13;;;2.45;;
69325;SDS011;56471;53.508;49.252;2023-02-28T08:15:23;11.93;;;2.78;;
69325;SDS011;56471;53.508;49.252;2023-02-28T08:17:49;13.77;;;3.40;;
69325;SDS011;56471;53.508;49.252;2023-02-28T08:20:15;9.00;;;2.78;;
69325;SDS011;56471;53.508;49.252;2023-02-28T08:22:40;7.47;;;3.10;;
69325;SDS011;56471;53.508;49.252;2023-02-28T08:25:07;7.53;;;2.72;;
69325;SDS011;56471;53.508;49.252;2023-02-28T08:27:33;7.40;;;3.08;;
69325;SDS011;56471;53.508;49.252;2023-02-28T08:29:59;6.07;;;2.67;;
69325;SDS011;56471;53.508;49.252;2023-02-28T08:32:25;6.20;;;2.78;;
69325;SDS011;56471;53.508;49.252;2023-02-28T08:34:50;3.33;;;2.60;;
69325;SDS011;56471;53.508;49.252;2023-02-28T08:37:16;4.82;;;3.08;;
69325;SDS011;56471;53.508;49.252;2023-02-28T08:39:42;4.78;;;2.80;;
69325;SDS011;56471;53.508;49.252;2023-02-28T08:42:07;3.40;;;2.47;;
69325;SDS011;56471;53.508;49.252;2023-02-28T08:44:33;4.38;;;2.60;;
69325;SDS011;56471;53.508;49.252;2023-02-28T08:46:59;4.72;;;2.85;;
69325;SDS011;56471;53.508;49.252;2023-02-28T08:49:24;7.00;;;2.97;;
69325;SDS011;56471;53.508;49.252;2023-02-28T08:51:50;10.00;;;2.85;;
69325;SDS011;56471;53.508;49.252;2023-02-28T08:54:16;6.82;;;2.58;;
69325;SDS011;56471;53.508;49.252;2023-02-28T08:56:44;6.93;;;2.55;;
69325;SDS011;56471;53.508;49.252;2023-02-28T08:59:12;4.93;;;2.38;;
69325;SDS011;56471;53.508;49.252;2023-02-28T09:01:37;5.00;;;2.40;;
69325;SDS011;56471;53.508;49.252;2023-02-28T09:04:03;5.22;;;2.65;;
69325;SDS011;56471;53.508;49.252;2023-02-28T09:06:32;5.53;;;2.50;;
69325;SDS011;56471;53.508;49.252;2023-02-28T09:08:58;5.70;;;2.47;;
69325;SDS011;56471;53.508;49.252;2023-02-28T09:11:24;8.10;;;2.80;;
69325;SDS011;56471;53.508;49.252;2023-02-28T09:13:50;4.93;;;2.75;;
69325;SDS011;56471;53.508;49.252;2023-02-28T09:16:16;8.35;;;2.58;;
69325;SDS011;56471;53.508;49.252;2023-02-28T09:18:42;4.47;;;2.50;;
69325;SDS011;56471;53.508;49.252;2023-02-28T09:21:10;6.47;;;2.53;;
69325;SDS011;56471;53.508;49.252;2023-02-28T09:23:39;11.40;;;2.70;;
69325;SDS011;56471;53.508;49.252;2023-02-28T09:26:06;6.75;;;2.53;;
69325;SDS011;56471;53.508;49.252;2023-02-28T09:28:33;6.72;;;2.80;;
69325;SDS011;56471;53.508;49.252;2023-02-28T09:30:59;7.22;;;2.45;;
69325;SDS011;56471;53.508;49.252;2023-02-28T09:33:25;6.38;;;2.58;;
69325;SDS011;56471;53.508;49.252;2023-02-28T09:35:57;5.80;;;2.38;;
69325;SDS011;56471;53.508;49.252;2023-02-28T09:38:24;3.15;;;2.50;;
69325;SDS011;56471;53.508;49.252;2023-02-28T09:40:51;6.53;;;2.83;;
69325;SDS011;56471;53.508;49.252;2023-02-28T09:43:35;4.25;;;2.30;;
69325;SDS011;56471;53.508;49.252;2023-02-28T09:48:48;9.70;;;2.75;;
69325;SDS011;56471;53.508;49.252;2023-02-28T09:53:55;5.95;;;2.55;;
69325;SDS011;56471;53.508;49.252;2023-02-28T09:56:23;4.53;;;2.60;;
69325;SDS011;56471;53.508;49.252;2023-02-28T09:59:00;7.10;;;2.72;;
69325;SDS011;56471;53.508;49.252;2023-02-28T10:04:17;4.78;;;2.42;;
69325;SDS011;56471;53.508;49.252;2023-02-28T10:06:51;5.25;;;2.40;;
69325;SDS011;56471;53.508;49.252;2023-02-28T10:09:25;6.57;;;2.72;;
69325;SDS011;56471;53.508;49.252;2023-02-28T10:11:56;7.40;;;2.58;;
69325;SDS011;56471;53.508;49.252;2023-02-28T10:14:28;4.40;;;2.38;;
69325;SDS011;56471;53.508;49.252;2023-02-28T10:17:02;3.67;;;2.75;;
69325;SDS011;56471;53.508;49.252;2023-02-28T10:19:42;5.25;;;2.60;;
69325;SDS011;56471;53.508;49.252;2023-02-28T10:22:17;5.07;;;2.80;;
69325;SDS011;56471;53.508;49.252;2023-02-28T10:24:51;7.18;;;2.92;;
69325;SDS011;56471;53.508;49.252;2023-02-28T10:27:20;5.13;;;2.60;;
69325;SDS011;56471;53.508;49.252;2023-02-28T10:29:50;4.53;;;2.70;;
69325;SDS011;56471;53.508;49.252;2023-02-28T10:37:38;4.60;;;2.53;;
69325;SDS011;56471;53.508;49.252;2023-02-28T10:40:06;4.90;;;2.70;;
69325;SDS011;56471;53.508;49.252;2023-02-28T10:42:56;4.53;;;2.60;;
69325;SDS011;56471;53.508;49.252;2023-02-28T10:45:28;2.60;;;2.40;;
69325;SDS011;56471;53.508;49.252;2023-02-28T10:48:01;4.93;;;2.70;;
69325;SDS011;56471;53.508;49.252;2023-02-28T10:56:24;2.80;;;2.45;;
69325;SDS011;56471;53.508;49.252;2023-02-28T10:59:03;3.38;;;2.80;;
69325;SDS011;56471;53.508;49.252;2023-02-28T11:01:52;3.55;;;2.63;;
69325;SDS011;56471;53.508;49.252;2023-02-28T11:07:01;3.85;;;2.60;;
69325;SDS011;56471;53.508;49.252;2023-02-28T11:09:36;3.35;;;2.75;;
69325;SDS011;56471;53.508;49.252;2023-02-28T11:12:05;3.80;;;2.47;;
69325;SDS011;56471;53.508;49.252;2023-02-28T11:14:40;2.78;;;2.55;;
69325;SDS011;56471;53.508;49.252;2023-02-28T11:17:24;821.08;;;539.90;;
69325;SDS011;56471;53.508;49.252;2023-02-28T11:19:53;790.20;;;540.58;;
69325;SDS011;56471;53.508;49.252;2023-02-28T11:22:23;625.00;;;409.77;;
69325;SDS011;56471;53.508;49.252;2023-02-28T11:24:54;499.77;;;311.65;;
69325;SDS011;56471;53.508;49.252;2023-02-28T11:29:59;305.10;;;162.05;;
69325;SDS011;56471;53.508;49.252;2023-02-28T11:32:28;236.93;;;125.20;;
69325;SDS011;56471;53.508;49.252;2023-02-28T11:37:36;142.93;;;74.80;;
69325;SDS011;56471;53.508;49.252;2023-02-28T11:40:16;117.03;;;59.85;;
69325;SDS011;56471;53.508;49.252;2023-02-28T11:51:21;44.63;;;22.15;;
69325;SDS011;56471;53.508;49.252;2023-02-28T11:53:59;34.25;;;17.80;;
69325;SDS011;56471;53.508;49.252;2023-02-28T11:56:40;30.30;;;14.55;;
69325;SDS011;56471;53.508;49.252;2023-02-28T12:23:50;9.85;;;5.50;;
69325;SDS011;56471;53.508;49.252;2023-02-28T12:29:04;7.90;;;5.47;;
69325;SDS011;56471;53.508;49.252;2023-02-28T12:31:36;8.38;;;5.43;;
69325;SDS011;56471;53.508;49.252;2023-02-28T12:34:06;7.28;;;5.30;;
69325;SDS011;56471;53.508;49.252;2023-02-28T12:36:36;771.00;;;548.90;;
69325;SDS011;56471;53.508;49.252;2023-02-28T12:39:10;626.42;;;442.58;;
69325;SDS011;56471;53.508;49.252;2023-02-28T12:42:05;467.85;;;307.48;;
69325;SDS011;56471;53.508;49.252;2023-02-28T12:44:44;335.92;;;197.77;;
69325;SDS011;56471;53.508;49.252;2023-02-28T12:47:15;231.70;;;128.88;;
69325;SDS011;56471;53.508;49.252;2023-02-28T12:49:53;163.27;;;91.40;;
69325;SDS011;56471;53.508;49.252;2023-02-28T12:52:35;117.57;;;64.22;;
69325;SDS011;56471;53.508;49.252;2023-02-28T12:55:04;96.53;;;49.67;;
69325;SDS011;56471;53.508;49.252;2023-02-28T13:00:10;53.63;;;27.55;;
69325;SDS011;56471;53.508;49.252;2023-02-28T13:10:59;19.55;;;11.35;;
69325;SDS011;56471;53.508;49.252;2023-02-28T13:13:26;13.93;;;8.98;;
69325;SDS011;56471;53.508;49.252;2023-02-28T13:16:04;12.15;;;7.95;;
69325;SDS011;56471;53.508;49.252;2023-02-28T13:18:36;10.35;;;6.47;;
69325;SDS011;56471;53.508;49.252;2023-02-28T13:21:07;9.77;;;6.40;;
69325;SDS011;56471;53.508;49.252;2023-02-28T13:26:22;8.57;;;5.93;;
69325;SDS011;56471;53.508;49.252;2023-02-28T13:34:30;5.78;;;4.50;;
69325;SDS011;56471;53.508;49.252;2023-02-28T13:37:43;5.95;;;4.68;;
69325;SDS011;56471;53.508;49.252;2023-02-28T13:47:30;5.15;;;4.13;;
69325;SDS011;56471;53.508;49.252;2023-02-28T13:52:48;5.18;;;4.15;;
69325;SDS011;56471;53.508;49.252;2023-02-28T13:55:24;6.07;;;4.50;;
69325;SDS011;56471;53.508;49.252;2023-02-28T13:58:12;1238.05;;;755.38;;
69325;SDS011;56471;53.508;49.252;2023-02-28T14:06:31;418.17;;;247.63;;
69325;SDS011;56471;53.508;49.252;2023-02-28T14:09:02;310.67;;;167.88;;
69325;SDS011;56471;53.508;49.252;2023-02-28T14:14:08;163.60;;;86.13;;
69325;SDS011;56471;53.508;49.252;2023-02-28T14:16:54;117.72;;;60.35;;
69325;SDS011;56471;53.508;49.252;2023-02-28T14:19:26;97.88;;;47.55;;
69325;SDS011;56471;53.508;49.252;2023-02-28T14:33:08;20.60;;;10.35;;
69325;SDS011;56471;53.508;49.252;2023-02-28T14:38:27;12.30;;;7.57;;
69325;SDS011;56471;53.508;49.252;2023-02-28T14:40:56;10.50;;;6.35;;
69325;SDS011;56471;53.508;49.252;2023-02-28T14:43:26;9.18;;;5.60;;
69325;SDS011;56471;53.508;49.252;2023-02-28T14:45:59;6.72;;;4.95;;
69325;SDS011;56471;53.508;49.252;2023-02-28T14:48:29;7.45;;;5.03;;
69325;SDS011;56471;53.508;49.252;2023-02-28T14:50:56;6.15;;;4.78;;
69325;SDS011;56471;53.508;49.252;2023-02-28T14:53:25;5.35;;;4.50;;
69325;SDS011;56471;53.508;49.252;2023-02-28T14:55:53;6.13;;;4.40;;
69325;SDS011;56471;53.508;49.252;2023-02-28T14:58:23;6.13;;;4.53;;
69325;SDS011;56471;53.508;49.252;2023-02-28T15:00:53;5.47;;;4.00;;
69325;SDS011;56471;53.508;49.252;2023-02-28T15:03:22;6.35;;;4.40;;
69325;SDS011;56471;53.508;49.252;2023-02-28T15:05:56;5.35;;;4.13;;
69325;SDS011;56471;53.508;49.252;2023-02-28T15:08:24;6.07;;;4.05;;
69325;SDS011;56471;53.508;49.252;2023-02-28T15:10:55;7.68;;;4.55;;
69325;SDS011;56471;53.508;49.252;2023-02-28T15:16:06;854.95;;;524.45;;
69325;SDS011;56471;53.508;49.252;2023-02-28T15:18:46;716.20;;;430.98;;
69325;SDS011;56471;53.508;49.252;2023-02-28T15:21:21;568.10;;;321.67;;
69325;SDS011;56471;53.508;49.252;2023-02-28T15:26:37;311.63;;;145.20;;
69325;SDS011;56471;53.508;49.252;2023-02-28T15:29:11;239.30;;;117.15;;
69325;SDS011;56471;53.508;49.252;2023-02-28T15:31:46;191.48;;;90.43;;
69325;SDS011;56471;53.508;49.252;2023-02-28T15:34:37;150.80;;;70.72;;
69325;SDS011;56471;53.508;49.252;2023-02-28T15:37:00;111.53;;;51.33;;
69325;SDS011;56471;53.508;49.252;2023-02-28T15:39:27;95.18;;;39.92;;
69325;SDS011;56471;53.508;49.252;2023-02-28T15:42:16;71.97;;;30.88;;
69325;SDS011;56471;53.508;49.252;2023-02-28T15:44:44;52.80;;;22.98;;
69325;SDS011;56471;53.508;49.252;2023-02-28T15:47:17;37.25;;;17.20;;
69325;SDS011;56471;53.508;49.252;2023-02-28T15:52:17;20.05;;;10.35;;
69325;SDS011;56471;53.508;49.252;2023-02-28T15:54:49;16.17;;;8.13;;
69325;SDS011;56471;53.508;49.252;2023-02-28T15:57:20;13.32;;;7.28;;
69325;SDS011;56471;53.508;49.252;2023-02-28T15:59:53;9.52;;;5.82;;
69325;SDS011;56471;53.508;49.252;2023-02-28T16:02:21;10.20;;;5.05;;
69325;SDS011;56471;53.508;49.252;2023-02-28T16:04:56;7.03;;;4.63;;
69325;SDS011;56471;53.508;49.252;2023-02-28T16:07:27;6.18;;;4.80;;
69325;SDS011;56471;53.508;49.252;2023-02-28T16:09:54;6.43;;;4.47;;
69325;SDS011;56471;53.508;49.252;2023-02-28T16:12:20;835.50;;;498.88;;
69325;SDS011;56471;53.508;49.252;2023-02-28T16:14:51;678.70;;;382.10;;
69325;SDS011;56471;53.508;49.252;2023-02-28T16:17:25;546.63;;;299.08;;
69325;SDS011;56471;53.508;49.252;2023-02-28T16:19:53;429.33;;;218.57;;
69325;SDS011;56471;53.508;49.252;2023-02-28T16:22:20;328.50;;;149.45;;
69325;SDS011;56471;53.508;49.252;2023-02-28T16:24:46;245.77;;;114.68;;
69325;SDS011;56471;53.508;49.252;2023-02-28T16:27:16;192.18;;;91.00;;
69325;SDS011;56471;53.508;49.252;2023-02-28T16:29:45;146.20;;;67.65;;
69325;SDS011;56471;53.508;49.252;2023-02-28T16:32:13;119.40;;;52.58;;
69325;SDS011;56471;53.508;49.252;2023-02-28T16:34:40;93.20;;;41.40;;
69325;SDS011;56471;53.508;49.252;2023-02-28T16:37:13;76.15;;;31.08;;
69325;SDS011;56471;53.508;49.252;2023-02-28T16:39:41;54.38;;;23.13;;
69325;SDS011;56471;53.508;49.252;2023-02-28T16:42:13;46.08;;;19.40;;
69325;SDS011;56471;53.508;49.252;2023-02-28T16:44:41;32.63;;;14.77;;
69325;SDS011;56471;53.508;49.252;2023-02-28T16:47:08;28.23;;;12.93;;
69325;SDS011;56471;53.508;49.252;2023-02-28T16:49:36;20.08;;;10.18;;
69325;SDS011;56471;53.508;49.252;2023-02-28T16:52:01;17.55;;;9.05;;
69325;SDS011;56471;53.508;49.252;2023-02-28T16:54:27;13.93;;;7.68;;
69325;SDS011;56471;53.508;49.252;2023-02-28T16:56:53;11.38;;;6.60;;
69325;SDS011;56471;53.508;49.252;2023-02-28T16:59:23;10.30;;;6.30;;
69325;SDS011;56471;53.508;49.252;2023-02-28T17:01:50;9.48;;;5.68;;
69325;SDS011;56471;53.508;49.252;2023-02-28T17:04:17;8.05;;;5.15;;
69325;SDS011;56471;53.508;49.252;2023-02-28T17:06:43;7.57;;;5.00;;
69325;SDS011;56471;53.508;49.252;2023-02-28T17:09:14;6.25;;;4.78;;
69325;SDS011;56471;53.508;49.252;2023-02-28T17:11:42;7.40;;;4.50;;
69325;SDS011;56471;53.508;49.252;2023-02-28T17:14:08;7.57;;;4.93;;
69325;SDS011;56471;53.508;49.252;2023-02-28T17:16:34;7.05;;;4.60;;
69325;SDS011;56471;53.508;49.252;2023-02-28T17:19:03;6.95;;;4.70;;
69325;SDS011;56471;53.508;49.252;2023-02-28T17:21:30;6.65;;;4.75;;